SCX357 KMSN-KRSW
Flight info
| Callsign | SCX357 |
|---|---|
| Flight time | 2h 36m |
| Altitude | 36000 |
| Route | WAITS OBK J73 GUIDO/N0463F350 J73 TILMN/N0463F370 J73 LGC GOONS BULZI Q81 NICKI/N0463F380 PLYER TYNEE4 |
| Aircraft | B738/M-SDE2E3FGHIRWXY/LB1 |
Departure
| Time | 2026-05-08 11:11 |
|---|---|
| Airport | Dane County Regional Truax Field (KMSN) |
Arrival
| Time | 2026-05-08 13:48 |
|---|---|
| Airport | Southwest Florida International Airport (KRSW) |
| Time | Latitude | Longitude | Altitude | Speed | Heading |
|---|---|---|---|---|---|
| 2026-05-08 10:51 | 43.13604 | -89.34492 | 866 ft | 0 kts | 270° |
| 2026-05-08 11:04 | 43.13604 | -89.34483 | 866 ft | 4 kts | 269° |
| 2026-05-08 11:05 | 43.13605 | -89.34447 | 866 ft | 4 kts | 263° |
| 2026-05-08 11:05 | 43.13610 | -89.34411 | 865 ft | 4 kts | 247° |
| 2026-05-08 11:05 | 43.13624 | -89.34385 | 864 ft | 4 kts | 197° |
| 2026-05-08 11:05 | 43.13634 | -89.34383 | 864 ft | 2 kts | 182° |
| 2026-05-08 11:06 | 43.13635 | -89.34382 | 864 ft | 1 kts | 182° |
| 2026-05-08 11:07 | 43.13620 | -89.34383 | 864 ft | 7 kts | 182° |
| 2026-05-08 11:08 | 43.13552 | -89.34397 | 865 ft | 12 kts | 202° |
| 2026-05-08 11:08 | 43.13462 | -89.34418 | 866 ft | 15 kts | 185° |
| 2026-05-08 11:08 | 43.13361 | -89.34379 | 858 ft | 17 kts | 185° |
| 2026-05-08 11:08 | 43.13240 | -89.34409 | 868 ft | 19 kts | 188° |
| 2026-05-08 11:09 | 43.13097 | -89.34436 | 871 ft | 23 kts | 187° |
| 2026-05-08 11:09 | 43.12916 | -89.34452 | 871 ft | 28 kts | 181° |
| 2026-05-08 11:09 | 43.12722 | -89.34457 | 871 ft | 28 kts | 181° |
| 2026-05-08 11:09 | 43.12553 | -89.34464 | 866 ft | 9 kts | 182° |
| 2026-05-08 11:10 | 43.12491 | -89.34457 | 866 ft | 11 kts | 156° |
| 2026-05-08 11:10 | 43.12460 | -89.34334 | 861 ft | 18 kts | 91° |
| 2026-05-08 11:10 | 43.12515 | -89.34214 | 867 ft | 14 kts | 8° |
| 2026-05-08 11:10 | 43.12618 | -89.34208 | 870 ft | 30 kts | 2° |
| 2026-05-08 11:11 | 43.13083 | -89.34188 | 870 ft | 102 kts | 2° |
| 2026-05-08 11:11 | 43.14003 | -89.34143 | 875 ft | 160 kts | 2° |
| 2026-05-08 11:11 | 43.15165 | -89.34083 | 1413 ft | 170 kts | 2° |
| 2026-05-08 11:11 | 43.16369 | -89.34023 | 2151 ft | 175 kts | 2° |
| 2026-05-08 11:12 | 43.17594 | -89.33959 | 2891 ft | 177 kts | 2° |
| 2026-05-08 11:12 | 43.18783 | -89.33378 | 3367 ft | 200 kts | 41° |
| 2026-05-08 11:12 | 43.19449 | -89.31594 | 3558 ft | 229 kts | 84° |
| 2026-05-08 11:12 | 43.19263 | -89.29324 | 3912 ft | 247 kts | 101° |
| 2026-05-08 11:13 | 43.18917 | -89.26901 | 4268 ft | 270 kts | 102° |
| 2026-05-08 11:13 | 43.18580 | -89.24366 | 5017 ft | 276 kts | 100° |
| 2026-05-08 11:13 | 43.18259 | -89.21736 | 5785 ft | 284 kts | 99° |
| 2026-05-08 11:13 | 43.17955 | -89.19035 | 6584 ft | 289 kts | 98° |
| 2026-05-08 11:14 | 43.17665 | -89.16279 | 7372 ft | 294 kts | 97° |
| 2026-05-08 11:14 | 43.17384 | -89.13474 | 8156 ft | 299 kts | 97° |
| 2026-05-08 11:14 | 43.17109 | -89.10624 | 8892 ft | 305 kts | 97° |
| 2026-05-08 11:14 | 43.16834 | -89.07714 | 9621 ft | 311 kts | 96° |
| 2026-05-08 11:15 | 43.16557 | -89.04753 | 10324 ft | 318 kts | 96° |
| 2026-05-08 11:15 | 43.16266 | -89.01636 | 10561 ft | 343 kts | 96° |
| 2026-05-08 11:15 | 43.15954 | -88.98282 | 10750 ft | 366 kts | 96° |
| 2026-05-08 11:15 | 43.15622 | -88.94716 | 10928 ft | 388 kts | 96° |
| 2026-05-08 11:16 | 43.15272 | -88.90969 | 11329 ft | 402 kts | 96° |
| 2026-05-08 11:16 | 43.14918 | -88.87194 | 11922 ft | 408 kts | 97° |
| 2026-05-08 11:16 | 43.14552 | -88.83319 | 12590 ft | 413 kts | 97° |
| 2026-05-08 11:16 | 43.14182 | -88.79391 | 13234 ft | 418 kts | 96° |
| 2026-05-08 11:17 | 43.13808 | -88.75421 | 13852 ft | 422 kts | 96° |
| 2026-05-08 11:17 | 43.13429 | -88.71420 | 14456 ft | 427 kts | 96° |
| 2026-05-08 11:17 | 43.12845 | -88.67403 | 15028 ft | 434 kts | 110° |
| 2026-05-08 11:17 | 43.11372 | -88.63805 | 15623 ft | 435 kts | 131° |
| 2026-05-08 11:18 | 43.09196 | -88.60973 | 16175 ft | 432 kts | 150° |
| 2026-05-08 11:18 | 43.06600 | -88.58897 | 16727 ft | 433 kts | 155° |
| 2026-05-08 11:18 | 43.03940 | -88.56905 | 17217 ft | 439 kts | 156° |
| 2026-05-08 11:18 | 43.02157 | -88.55582 | 17565 ft | 442 kts | 156° |
| 2026-05-08 11:19 | 42.99450 | -88.53570 | 18099 ft | 446 kts | 156° |
| 2026-05-08 11:19 | 42.96717 | -88.51521 | 18603 ft | 450 kts | 156° |
| 2026-05-08 11:19 | 42.93963 | -88.49439 | 19107 ft | 454 kts | 156° |
| 2026-05-08 11:19 | 42.91183 | -88.47326 | 19603 ft | 458 kts | 155° |
| 2026-05-08 11:20 | 42.88392 | -88.45198 | 20105 ft | 461 kts | 155° |
| 2026-05-08 11:20 | 42.85572 | -88.43045 | 20572 ft | 465 kts | 155° |
| 2026-05-08 11:20 | 42.82778 | -88.40913 | 21017 ft | 468 kts | 156° |
| 2026-05-08 11:20 | 42.79919 | -88.38735 | 21479 ft | 471 kts | 155° |
| 2026-05-08 11:21 | 42.77047 | -88.36550 | 21902 ft | 475 kts | 155° |
| 2026-05-08 11:21 | 42.74154 | -88.34351 | 22327 ft | 478 kts | 156° |
| 2026-05-08 11:21 | 42.71240 | -88.32140 | 22751 ft | 480 kts | 156° |
| 2026-05-08 11:21 | 42.68318 | -88.29924 | 23172 ft | 483 kts | 156° |
| 2026-05-08 11:22 | 42.65375 | -88.27696 | 23598 ft | 485 kts | 156° |
| 2026-05-08 11:22 | 42.62417 | -88.25457 | 24017 ft | 487 kts | 156° |
| 2026-05-08 11:22 | 42.59449 | -88.23214 | 24435 ft | 488 kts | 156° |
| 2026-05-08 11:22 | 42.56472 | -88.20966 | 24851 ft | 490 kts | 156° |
| 2026-05-08 11:23 | 42.53491 | -88.18719 | 25263 ft | 491 kts | 156° |
| 2026-05-08 11:23 | 42.50496 | -88.16464 | 25669 ft | 492 kts | 156° |
| 2026-05-08 11:23 | 42.47498 | -88.14209 | 26071 ft | 493 kts | 156° |
| 2026-05-08 11:23 | 42.44496 | -88.11954 | 26465 ft | 494 kts | 156° |
| 2026-05-08 11:24 | 42.41484 | -88.09693 | 26867 ft | 495 kts | 156° |
| 2026-05-08 11:24 | 42.38508 | -88.07461 | 27244 ft | 496 kts | 156° |
| 2026-05-08 11:24 | 42.35485 | -88.05196 | 27523 ft | 499 kts | 156° |
| 2026-05-08 11:24 | 42.32423 | -88.02908 | 27553 ft | 508 kts | 156° |
| 2026-05-08 11:25 | 42.29302 | -88.00578 | 27613 ft | 515 kts | 156° |
| 2026-05-08 11:25 | 42.26138 | -87.98252 | 27735 ft | 519 kts | 159° |
| 2026-05-08 11:25 | 42.22819 | -87.96432 | 27996 ft | 512 kts | 168° |
| 2026-05-08 11:25 | 42.19397 | -87.95253 | 28385 ft | 504 kts | 176° |
| 2026-05-08 11:26 | 42.15956 | -87.94720 | 28784 ft | 492 kts | 185° |
| 2026-05-08 11:26 | 42.12547 | -87.94591 | 29222 ft | 489 kts | 186° |
| 2026-05-08 11:26 | 42.09161 | -87.94484 | 29599 ft | 487 kts | 186° |
| 2026-05-08 11:26 | 42.05767 | -87.94374 | 29914 ft | 487 kts | 186° |
| 2026-05-08 11:27 | 42.02365 | -87.94249 | 30225 ft | 488 kts | 186° |
| 2026-05-08 11:27 | 41.98980 | -87.94110 | 30569 ft | 486 kts | 186° |
| 2026-05-08 11:27 | 41.95612 | -87.93959 | 30932 ft | 484 kts | 186° |
| 2026-05-08 11:27 | 41.92245 | -87.93801 | 31291 ft | 483 kts | 186° |
| 2026-05-08 11:28 | 41.88896 | -87.93641 | 31649 ft | 481 kts | 186° |
| 2026-05-08 11:28 | 41.85556 | -87.93481 | 31991 ft | 480 kts | 186° |
| 2026-05-08 11:28 | 41.82224 | -87.93322 | 32272 ft | 479 kts | 186° |
| 2026-05-08 11:28 | 41.78896 | -87.93165 | 32575 ft | 478 kts | 186° |
| 2026-05-08 11:29 | 41.75575 | -87.93009 | 32884 ft | 477 kts | 186° |
| 2026-05-08 11:29 | 41.72264 | -87.92853 | 33211 ft | 475 kts | 186° |
| 2026-05-08 11:29 | 41.68961 | -87.92700 | 33496 ft | 474 kts | 186° |
| 2026-05-08 11:29 | 41.65678 | -87.92545 | 33855 ft | 471 kts | 187° |
| 2026-05-08 11:30 | 41.62408 | -87.92391 | 34182 ft | 469 kts | 187° |
| 2026-05-08 11:30 | 41.59148 | -87.92239 | 34402 ft | 470 kts | 187° |
| 2026-05-08 11:30 | 41.55882 | -87.92089 | 34631 ft | 470 kts | 187° |
| 2026-05-08 11:30 | 41.52616 | -87.91939 | 34858 ft | 470 kts | 187° |
| 2026-05-08 11:31 | 41.49391 | -87.91790 | 35062 ft | 470 kts | 187° |
| 2026-05-08 11:31 | 41.46130 | -87.91640 | 35368 ft | 468 kts | 187° |
| 2026-05-08 11:31 | 41.42882 | -87.91488 | 35634 ft | 467 kts | 187° |
| 2026-05-08 11:31 | 41.39633 | -87.91336 | 35828 ft | 467 kts | 187° |
| 2026-05-08 11:32 | 41.36386 | -87.91187 | 36017 ft | 467 kts | 187° |
| 2026-05-08 11:32 | 41.33159 | -87.91039 | 36234 ft | 466 kts | 188° |
| 2026-05-08 11:32 | 41.29907 | -87.90889 | 36393 ft | 466 kts | 188° |
| 2026-05-08 11:32 | 41.26659 | -87.90740 | 36523 ft | 468 kts | 188° |
| 2026-05-08 11:33 | 41.23414 | -87.90591 | 36750 ft | 466 kts | 188° |
| 2026-05-08 11:33 | 41.20179 | -87.90439 | 36971 ft | 464 kts | 188° |
| 2026-05-08 11:33 | 41.16945 | -87.90290 | 36941 ft | 464 kts | 188° |
| 2026-05-08 11:34 | 41.10540 | -87.89989 | 36949 ft | 455 kts | 188° |
| 2026-05-08 11:34 | 41.04242 | -87.89698 | 36970 ft | 452 kts | 189° |
| 2026-05-08 11:35 | 40.97962 | -87.89418 | 36959 ft | 451 kts | 189° |
| 2026-05-08 11:35 | 40.91691 | -87.89133 | 36967 ft | 450 kts | 189° |
| 2026-05-08 11:36 | 40.85462 | -87.88850 | 36967 ft | 450 kts | 189° |
| 2026-05-08 11:36 | 40.79155 | -87.88563 | 36967 ft | 451 kts | 189° |
| 2026-05-08 11:37 | 40.72925 | -87.88281 | 36979 ft | 452 kts | 189° |
| 2026-05-08 11:37 | 40.66629 | -87.87991 | 36970 ft | 452 kts | 189° |
| 2026-05-08 11:38 | 40.60332 | -87.87708 | 36974 ft | 453 kts | 190° |
| 2026-05-08 11:38 | 40.54021 | -87.87426 | 36978 ft | 453 kts | 190° |
| 2026-05-08 11:39 | 40.47726 | -87.87142 | 36981 ft | 453 kts | 190° |
| 2026-05-08 11:39 | 40.41465 | -87.86859 | 36985 ft | 453 kts | 190° |
| 2026-05-08 11:40 | 40.35171 | -87.86577 | 36980 ft | 452 kts | 190° |
| 2026-05-08 11:40 | 40.28879 | -87.86294 | 36981 ft | 452 kts | 190° |
| 2026-05-08 11:41 | 40.22609 | -87.86021 | 36980 ft | 451 kts | 191° |
| 2026-05-08 11:41 | 40.16330 | -87.85750 | 36982 ft | 450 kts | 191° |
| 2026-05-08 11:42 | 40.10066 | -87.85482 | 36983 ft | 450 kts | 191° |
| 2026-05-08 11:42 | 40.03798 | -87.85212 | 36982 ft | 449 kts | 191° |
| 2026-05-08 11:43 | 39.97550 | -87.84938 | 36982 ft | 449 kts | 191° |
| 2026-05-08 11:43 | 39.91346 | -87.84675 | 36982 ft | 449 kts | 191° |
| 2026-05-08 11:44 | 39.85100 | -87.84411 | 36983 ft | 449 kts | 191° |
| 2026-05-08 11:44 | 39.78854 | -87.84144 | 36981 ft | 449 kts | 191° |
| 2026-05-08 11:45 | 39.72609 | -87.83876 | 36987 ft | 449 kts | 191° |
| 2026-05-08 11:45 | 39.66370 | -87.83610 | 36995 ft | 449 kts | 191° |
| 2026-05-08 11:46 | 39.60155 | -87.83348 | 36992 ft | 449 kts | 191° |
| 2026-05-08 11:46 | 39.53906 | -87.83084 | 36992 ft | 449 kts | 191° |
| 2026-05-08 11:47 | 39.47652 | -87.82819 | 36991 ft | 449 kts | 191° |
| 2026-05-08 11:47 | 39.41395 | -87.82546 | 36989 ft | 449 kts | 191° |
| 2026-05-08 11:48 | 39.35187 | -87.82272 | 36998 ft | 448 kts | 192° |
| 2026-05-08 11:48 | 39.28950 | -87.81997 | 36999 ft | 448 kts | 192° |
| 2026-05-08 11:49 | 39.22721 | -87.81727 | 37008 ft | 447 kts | 192° |
| 2026-05-08 11:49 | 39.16499 | -87.81457 | 37011 ft | 447 kts | 192° |
| 2026-05-08 11:50 | 39.10288 | -87.81190 | 37021 ft | 446 kts | 192° |
| 2026-05-08 11:50 | 39.04099 | -87.80924 | 37017 ft | 445 kts | 193° |
| 2026-05-08 11:51 | 38.97907 | -87.80659 | 37016 ft | 444 kts | 193° |
| 2026-05-08 11:51 | 38.91727 | -87.80394 | 37019 ft | 444 kts | 193° |
| 2026-05-08 11:52 | 38.85563 | -87.80127 | 37012 ft | 443 kts | 193° |
| 2026-05-08 11:52 | 38.79445 | -87.79863 | 37024 ft | 441 kts | 193° |
| 2026-05-08 11:53 | 38.73314 | -87.79601 | 37026 ft | 440 kts | 194° |
| 2026-05-08 11:53 | 38.67193 | -87.79339 | 37031 ft | 440 kts | 194° |
| 2026-05-08 11:54 | 38.61076 | -87.79079 | 37032 ft | 439 kts | 194° |
| 2026-05-08 11:54 | 38.55010 | -87.78821 | 37038 ft | 438 kts | 194° |
| 2026-05-08 11:55 | 38.48926 | -87.78563 | 37037 ft | 437 kts | 194° |
| 2026-05-08 11:55 | 38.42850 | -87.78306 | 37039 ft | 437 kts | 194° |
| 2026-05-08 11:56 | 38.36781 | -87.78049 | 37035 ft | 436 kts | 194° |
| 2026-05-08 11:56 | 38.30706 | -87.77793 | 37047 ft | 436 kts | 195° |
| 2026-05-08 11:57 | 38.24642 | -87.77537 | 37048 ft | 436 kts | 195° |
| 2026-05-08 11:57 | 38.18561 | -87.77282 | 37052 ft | 436 kts | 195° |
| 2026-05-08 11:58 | 38.12520 | -87.77028 | 37053 ft | 436 kts | 195° |
| 2026-05-08 11:58 | 38.06449 | -87.76772 | 37057 ft | 436 kts | 195° |
| 2026-05-08 11:59 | 37.97332 | -87.76390 | 37054 ft | 436 kts | 195° |
| 2026-05-08 11:59 | 37.94255 | -87.76049 | 37052 ft | 454 kts | 186° |
| 2026-05-08 11:59 | 37.91159 | -87.75119 | 37059 ft | 472 kts | 178° |
| 2026-05-08 12:00 | 37.88046 | -87.73524 | 37058 ft | 490 kts | 170° |
| 2026-05-08 12:00 | 37.84971 | -87.71642 | 37058 ft | 492 kts | 169° |
| 2026-05-08 12:00 | 37.78846 | -87.67733 | 37052 ft | 493 kts | 168° |
| 2026-05-08 12:01 | 37.72719 | -87.63860 | 37053 ft | 491 kts | 169° |
| 2026-05-08 12:01 | 37.66602 | -87.60077 | 37051 ft | 489 kts | 169° |
| 2026-05-08 12:02 | 37.60491 | -87.56341 | 37061 ft | 488 kts | 169° |
| 2026-05-08 12:02 | 37.54373 | -87.52612 | 37067 ft | 488 kts | 169° |
| 2026-05-08 12:03 | 37.48298 | -87.48912 | 37072 ft | 488 kts | 169° |
| 2026-05-08 12:03 | 37.42191 | -87.45194 | 37079 ft | 487 kts | 170° |
| 2026-05-08 12:04 | 37.36088 | -87.41485 | 37080 ft | 487 kts | 169° |
| 2026-05-08 12:04 | 37.31016 | -87.38409 | 37086 ft | 487 kts | 168° |
| 2026-05-08 12:05 | 37.23886 | -87.34091 | 37079 ft | 486 kts | 168° |
| 2026-05-08 12:05 | 37.17790 | -87.30407 | 37086 ft | 486 kts | 169° |
| 2026-05-08 12:06 | 37.11743 | -87.26758 | 37102 ft | 485 kts | 169° |
| 2026-05-08 12:06 | 37.05665 | -87.23102 | 37097 ft | 484 kts | 169° |
| 2026-05-08 12:07 | 36.99601 | -87.19455 | 37081 ft | 483 kts | 169° |
| 2026-05-08 12:07 | 36.93545 | -87.15821 | 37102 ft | 483 kts | 169° |
| 2026-05-08 12:08 | 36.87490 | -87.12194 | 37100 ft | 482 kts | 169° |
| 2026-05-08 12:08 | 36.82464 | -87.09187 | 37095 ft | 481 kts | 169° |
| 2026-05-08 12:09 | 36.76418 | -87.05579 | 37094 ft | 481 kts | 170° |
| 2026-05-08 12:09 | 36.70373 | -87.01977 | 37099 ft | 482 kts | 170° |
| 2026-05-08 12:10 | 36.64320 | -86.98378 | 37098 ft | 481 kts | 170° |
| 2026-05-08 12:10 | 36.58267 | -86.94783 | 37096 ft | 482 kts | 170° |
| 2026-05-08 12:11 | 36.52203 | -86.91187 | 37084 ft | 482 kts | 170° |
| 2026-05-08 12:11 | 36.46148 | -86.87601 | 37097 ft | 482 kts | 170° |
| 2026-05-08 12:12 | 36.40095 | -86.84025 | 37098 ft | 482 kts | 171° |
| 2026-05-08 12:12 | 36.34080 | -86.80479 | 37109 ft | 482 kts | 171° |
| 2026-05-08 12:13 | 36.28010 | -86.76907 | 37110 ft | 482 kts | 171° |
| 2026-05-08 12:13 | 36.21950 | -86.73342 | 37105 ft | 481 kts | 171° |
| 2026-05-08 12:14 | 36.15902 | -86.69791 | 37115 ft | 480 kts | 171° |
| 2026-05-08 12:14 | 36.09854 | -86.66439 | 37115 ft | 472 kts | 174° |
| 2026-05-08 12:15 | 36.03782 | -86.63450 | 37117 ft | 469 kts | 175° |
| 2026-05-08 12:15 | 35.97736 | -86.60524 | 37134 ft | 469 kts | 175° |
| 2026-05-08 12:16 | 35.91665 | -86.57548 | 37124 ft | 469 kts | 175° |
| 2026-05-08 12:16 | 35.85596 | -86.54547 | 37136 ft | 469 kts | 175° |
| 2026-05-08 12:17 | 35.79528 | -86.51545 | 37121 ft | 470 kts | 175° |
| 2026-05-08 12:17 | 35.73452 | -86.48545 | 37119 ft | 471 kts | 175° |
| 2026-05-08 12:18 | 35.67372 | -86.45545 | 37120 ft | 471 kts | 175° |
| 2026-05-08 12:18 | 35.61283 | -86.42548 | 37115 ft | 471 kts | 175° |
| 2026-05-08 12:19 | 35.55185 | -86.39552 | 37111 ft | 472 kts | 175° |
| 2026-05-08 12:19 | 35.49124 | -86.36579 | 37105 ft | 472 kts | 175° |
| 2026-05-08 12:20 | 35.43022 | -86.33592 | 37116 ft | 472 kts | 175° |
| 2026-05-08 12:20 | 35.36925 | -86.30609 | 37126 ft | 472 kts | 175° |
| 2026-05-08 12:21 | 35.30829 | -86.27632 | 37114 ft | 472 kts | 175° |
| 2026-05-08 12:21 | 35.24726 | -86.24657 | 37122 ft | 472 kts | 175° |
| 2026-05-08 12:22 | 35.18627 | -86.21691 | 37126 ft | 471 kts | 174° |
| 2026-05-08 12:22 | 35.12564 | -86.18747 | 37136 ft | 472 kts | 174° |
| 2026-05-08 12:23 | 35.06451 | -86.15784 | 37140 ft | 473 kts | 174° |
| 2026-05-08 12:23 | 35.00320 | -86.12818 | 37139 ft | 474 kts | 174° |
| 2026-05-08 12:24 | 34.94176 | -86.09848 | 37156 ft | 474 kts | 174° |
| 2026-05-08 12:24 | 34.88036 | -86.06884 | 37140 ft | 474 kts | 174° |
| 2026-05-08 12:25 | 34.81895 | -86.03922 | 37145 ft | 474 kts | 174° |
| 2026-05-08 12:25 | 34.75750 | -86.00965 | 37134 ft | 474 kts | 174° |
| 2026-05-08 12:26 | 34.69646 | -85.98030 | 37140 ft | 474 kts | 174° |
| 2026-05-08 12:26 | 34.63499 | -85.95086 | 37154 ft | 475 kts | 174° |
| 2026-05-08 12:27 | 34.57343 | -85.92141 | 37146 ft | 476 kts | 174° |
| 2026-05-08 12:27 | 34.51175 | -85.89193 | 37143 ft | 476 kts | 174° |
| 2026-05-08 12:28 | 34.44996 | -85.86244 | 37133 ft | 477 kts | 174° |
| 2026-05-08 12:28 | 34.38849 | -85.83314 | 37144 ft | 478 kts | 174° |
| 2026-05-08 12:29 | 34.32653 | -85.80365 | 37140 ft | 478 kts | 174° |
| 2026-05-08 12:29 | 34.26446 | -85.77418 | 37136 ft | 479 kts | 174° |
| 2026-05-08 12:30 | 34.20242 | -85.74473 | 37140 ft | 479 kts | 174° |
| 2026-05-08 12:30 | 34.14040 | -85.71535 | 37137 ft | 478 kts | 174° |
| 2026-05-08 12:31 | 34.07834 | -85.68603 | 37138 ft | 478 kts | 174° |
| 2026-05-08 12:31 | 34.01632 | -85.65676 | 37134 ft | 478 kts | 174° |
| 2026-05-08 12:32 | 33.95438 | -85.62756 | 37132 ft | 478 kts | 174° |
| 2026-05-08 12:32 | 33.89289 | -85.59863 | 37139 ft | 477 kts | 174° |
| 2026-05-08 12:33 | 33.83101 | -85.56957 | 37139 ft | 477 kts | 174° |
| 2026-05-08 12:33 | 33.76915 | -85.54055 | 37143 ft | 476 kts | 174° |
| 2026-05-08 12:34 | 33.70725 | -85.51156 | 37139 ft | 477 kts | 174° |
| 2026-05-08 12:34 | 33.64583 | -85.48285 | 37153 ft | 477 kts | 173° |
| 2026-05-08 12:35 | 33.58393 | -85.45392 | 37150 ft | 477 kts | 173° |
| 2026-05-08 12:35 | 33.52199 | -85.42508 | 37150 ft | 478 kts | 173° |
| 2026-05-08 12:36 | 33.45994 | -85.39620 | 37150 ft | 478 kts | 173° |
| 2026-05-08 12:36 | 33.39788 | -85.36735 | 37147 ft | 479 kts | 173° |
| 2026-05-08 12:37 | 33.33565 | -85.33848 | 37154 ft | 480 kts | 173° |
| 2026-05-08 12:37 | 33.27335 | -85.30961 | 37146 ft | 480 kts | 173° |
| 2026-05-08 12:38 | 33.21140 | -85.28095 | 37140 ft | 480 kts | 173° |
| 2026-05-08 12:38 | 33.14898 | -85.25211 | 37133 ft | 481 kts | 173° |
| 2026-05-08 12:39 | 33.08653 | -85.22330 | 37128 ft | 481 kts | 173° |
| 2026-05-08 12:39 | 33.02394 | -85.19620 | 37128 ft | 472 kts | 177° |
| 2026-05-08 12:40 | 32.96120 | -85.17466 | 37126 ft | 468 kts | 179° |
| 2026-05-08 12:40 | 32.89887 | -85.15418 | 37128 ft | 467 kts | 179° |
| 2026-05-08 12:41 | 32.83620 | -85.13321 | 37133 ft | 468 kts | 178° |
| 2026-05-08 12:41 | 32.77344 | -85.11188 | 37126 ft | 469 kts | 178° |
| 2026-05-08 12:42 | 32.71071 | -85.09049 | 37119 ft | 469 kts | 178° |
| 2026-05-08 12:42 | 32.64799 | -85.06911 | 37123 ft | 469 kts | 178° |
| 2026-05-08 12:43 | 32.58525 | -85.04779 | 37117 ft | 469 kts | 178° |
| 2026-05-08 12:43 | 32.52246 | -85.02651 | 37114 ft | 470 kts | 178° |
| 2026-05-08 12:44 | 32.45960 | -85.00522 | 37110 ft | 470 kts | 178° |
| 2026-05-08 12:44 | 32.39672 | -84.98393 | 37100 ft | 469 kts | 178° |
| 2026-05-08 12:45 | 32.33384 | -84.96271 | 37085 ft | 470 kts | 178° |
| 2026-05-08 12:45 | 32.27085 | -84.94149 | 37070 ft | 470 kts | 178° |
| 2026-05-08 12:46 | 32.20797 | -84.92031 | 37076 ft | 470 kts | 178° |
| 2026-05-08 12:46 | 32.14511 | -84.89918 | 37084 ft | 470 kts | 178° |
| 2026-05-08 12:47 | 32.08222 | -84.87805 | 37081 ft | 469 kts | 178° |
| 2026-05-08 12:47 | 32.01977 | -84.85710 | 37089 ft | 469 kts | 178° |
| 2026-05-08 12:48 | 31.95695 | -84.83608 | 37090 ft | 469 kts | 177° |
| 2026-05-08 12:48 | 31.89409 | -84.81506 | 37105 ft | 469 kts | 177° |
| 2026-05-08 12:49 | 31.83159 | -84.79043 | 37113 ft | 481 kts | 170° |
| 2026-05-08 12:49 | 31.76985 | -84.75934 | 37104 ft | 484 kts | 168° |
| 2026-05-08 12:50 | 31.70820 | -84.72762 | 37101 ft | 483 kts | 169° |
| 2026-05-08 12:50 | 31.64686 | -84.69677 | 37098 ft | 482 kts | 169° |
| 2026-05-08 12:51 | 31.55406 | -84.65088 | 37110 ft | 482 kts | 169° |
| 2026-05-08 12:52 | 31.49215 | -84.62037 | 37096 ft | 482 kts | 169° |
| 2026-05-08 12:52 | 31.39933 | -84.57468 | 37106 ft | 482 kts | 169° |
| 2026-05-08 12:53 | 31.33750 | -84.54428 | 37097 ft | 482 kts | 169° |
| 2026-05-08 12:53 | 31.27567 | -84.51391 | 37102 ft | 482 kts | 169° |
| 2026-05-08 12:54 | 31.21374 | -84.48356 | 37102 ft | 481 kts | 169° |
| 2026-05-08 12:54 | 31.15236 | -84.45351 | 37096 ft | 481 kts | 169° |
| 2026-05-08 12:55 | 31.09057 | -84.42331 | 37093 ft | 481 kts | 169° |
| 2026-05-08 12:55 | 31.02876 | -84.39313 | 37105 ft | 481 kts | 169° |
| 2026-05-08 12:56 | 30.96704 | -84.36304 | 37101 ft | 481 kts | 168° |
| 2026-05-08 12:56 | 30.91576 | -84.33807 | 37106 ft | 480 kts | 168° |
| 2026-05-08 12:57 | 30.84396 | -84.30317 | 37093 ft | 480 kts | 168° |
| 2026-05-08 12:57 | 30.78226 | -84.27320 | 37093 ft | 480 kts | 168° |
| 2026-05-08 12:58 | 30.73055 | -84.24812 | 37087 ft | 480 kts | 168° |
| 2026-05-08 12:58 | 30.66933 | -84.21848 | 37095 ft | 480 kts | 168° |
| 2026-05-08 12:59 | 30.60768 | -84.18867 | 37071 ft | 480 kts | 168° |
| 2026-05-08 12:59 | 30.54613 | -84.15894 | 37076 ft | 479 kts | 167° |
| 2026-05-08 13:00 | 30.48449 | -84.12920 | 37076 ft | 479 kts | 167° |
| 2026-05-08 13:00 | 30.42289 | -84.09953 | 37058 ft | 480 kts | 167° |
| 2026-05-08 13:01 | 30.36147 | -84.06894 | 37060 ft | 486 kts | 162° |
| 2026-05-08 13:01 | 30.30211 | -84.03039 | 37067 ft | 491 kts | 159° |
| 2026-05-08 13:02 | 30.24330 | -83.99014 | 37067 ft | 491 kts | 159° |
| 2026-05-08 13:02 | 30.18427 | -83.95046 | 37065 ft | 490 kts | 159° |
| 2026-05-08 13:03 | 30.12510 | -83.91135 | 37063 ft | 490 kts | 159° |
| 2026-05-08 13:03 | 30.06589 | -83.87240 | 37065 ft | 490 kts | 159° |
| 2026-05-08 13:04 | 30.00705 | -83.83372 | 37068 ft | 490 kts | 159° |
| 2026-05-08 13:04 | 29.94780 | -83.79478 | 37063 ft | 490 kts | 159° |
| 2026-05-08 13:05 | 29.88864 | -83.75595 | 37064 ft | 489 kts | 159° |
| 2026-05-08 13:05 | 29.82949 | -83.71716 | 37063 ft | 489 kts | 159° |
| 2026-05-08 13:06 | 29.77035 | -83.67838 | 37064 ft | 489 kts | 159° |
| 2026-05-08 13:06 | 29.71128 | -83.63955 | 37066 ft | 488 kts | 159° |
| 2026-05-08 13:07 | 29.65227 | -83.60079 | 37064 ft | 488 kts | 159° |
| 2026-05-08 13:07 | 29.59328 | -83.56210 | 37063 ft | 488 kts | 159° |
| 2026-05-08 13:08 | 29.53434 | -83.52352 | 37054 ft | 488 kts | 159° |
| 2026-05-08 13:08 | 29.47528 | -83.48492 | 37054 ft | 488 kts | 159° |
| 2026-05-08 13:09 | 29.41666 | -83.44665 | 37055 ft | 487 kts | 159° |
| 2026-05-08 13:09 | 29.35773 | -83.40822 | 37053 ft | 487 kts | 159° |
| 2026-05-08 13:10 | 29.29872 | -83.36989 | 37056 ft | 486 kts | 160° |
| 2026-05-08 13:10 | 29.26822 | -83.35452 | 37051 ft | 473 kts | 171° |
| 2026-05-08 13:10 | 29.23685 | -83.34471 | 37064 ft | 463 kts | 178° |
| 2026-05-08 13:11 | 29.20531 | -83.33986 | 37056 ft | 452 kts | 187° |
| 2026-05-08 13:11 | 29.17403 | -83.33934 | 37075 ft | 448 kts | 189° |
| 2026-05-08 13:11 | 29.11151 | -83.33899 | 37061 ft | 450 kts | 188° |
| 2026-05-08 13:12 | 29.04868 | -83.33803 | 37065 ft | 452 kts | 188° |
| 2026-05-08 13:12 | 28.98574 | -83.33674 | 37064 ft | 452 kts | 188° |
| 2026-05-08 13:13 | 28.92239 | -83.32812 | 37053 ft | 471 kts | 172° |
| 2026-05-08 13:13 | 28.85967 | -83.30495 | 37064 ft | 475 kts | 169° |
| 2026-05-08 13:14 | 28.79734 | -83.28113 | 37072 ft | 475 kts | 170° |
| 2026-05-08 13:14 | 28.73445 | -83.25785 | 37073 ft | 475 kts | 170° |
| 2026-05-08 13:15 | 28.67153 | -83.23495 | 37074 ft | 475 kts | 170° |
| 2026-05-08 13:15 | 28.60841 | -83.21199 | 37075 ft | 475 kts | 170° |
| 2026-05-08 13:16 | 28.54541 | -83.18905 | 37073 ft | 475 kts | 170° |
| 2026-05-08 13:16 | 28.48246 | -83.16602 | 37072 ft | 475 kts | 170° |
| 2026-05-08 13:17 | 28.41999 | -83.14316 | 37077 ft | 474 kts | 170° |
| 2026-05-08 13:17 | 28.35719 | -83.12020 | 37083 ft | 473 kts | 170° |
| 2026-05-08 13:18 | 28.29446 | -83.09731 | 37080 ft | 473 kts | 170° |
| 2026-05-08 13:18 | 28.23177 | -83.07448 | 37096 ft | 473 kts | 170° |
| 2026-05-08 13:19 | 28.16913 | -83.05168 | 37080 ft | 473 kts | 170° |
| 2026-05-08 13:19 | 28.10656 | -83.02893 | 37085 ft | 473 kts | 170° |
| 2026-05-08 13:20 | 28.04407 | -83.00444 | 37081 ft | 476 kts | 166° |
| 2026-05-08 13:20 | 27.98246 | -82.97636 | 37081 ft | 478 kts | 165° |
| 2026-05-08 13:21 | 27.92095 | -82.94791 | 37090 ft | 478 kts | 165° |
| 2026-05-08 13:21 | 27.86013 | -82.92020 | 36839 ft | 467 kts | 165° |
| 2026-05-08 13:22 | 27.83012 | -82.90664 | 36252 ft | 463 kts | 165° |
| 2026-05-08 13:22 | 27.80011 | -82.89316 | 35310 ft | 466 kts | 165° |
| 2026-05-08 13:22 | 27.76967 | -82.87957 | 34142 ft | 474 kts | 165° |
| 2026-05-08 13:22 | 27.73859 | -82.86571 | 32893 ft | 483 kts | 165° |
| 2026-05-08 13:23 | 27.70701 | -82.85161 | 31773 ft | 491 kts | 164° |
| 2026-05-08 13:23 | 27.67526 | -82.83736 | 31004 ft | 491 kts | 164° |
| 2026-05-08 13:23 | 27.64343 | -82.82305 | 30145 ft | 493 kts | 164° |
| 2026-05-08 13:23 | 27.61151 | -82.80872 | 29275 ft | 494 kts | 163° |
| 2026-05-08 13:24 | 27.57991 | -82.79456 | 28383 ft | 496 kts | 163° |
| 2026-05-08 13:24 | 27.54758 | -82.78007 | 27730 ft | 491 kts | 163° |
| 2026-05-08 13:24 | 27.51640 | -82.76610 | 27080 ft | 486 kts | 163° |
| 2026-05-08 13:24 | 27.48512 | -82.75211 | 26425 ft | 481 kts | 163° |
| 2026-05-08 13:25 | 27.45414 | -82.73827 | 25775 ft | 477 kts | 163° |
| 2026-05-08 13:25 | 27.42344 | -82.72457 | 25138 ft | 472 kts | 163° |
| 2026-05-08 13:25 | 27.39302 | -82.71100 | 24503 ft | 468 kts | 163° |
| 2026-05-08 13:25 | 27.36289 | -82.69757 | 23852 ft | 464 kts | 163° |
| 2026-05-08 13:26 | 27.33300 | -82.68427 | 23216 ft | 460 kts | 163° |
| 2026-05-08 13:26 | 27.30333 | -82.67106 | 22577 ft | 456 kts | 163° |
| 2026-05-08 13:26 | 27.27429 | -82.65725 | 21940 ft | 454 kts | 158° |
| 2026-05-08 13:26 | 27.24701 | -82.63895 | 21305 ft | 455 kts | 149° |
| 2026-05-08 13:27 | 27.22117 | -82.61858 | 20677 ft | 452 kts | 148° |
| 2026-05-08 13:27 | 27.19574 | -82.59815 | 20045 ft | 448 kts | 148° |
| 2026-05-08 13:27 | 27.17075 | -82.57818 | 19424 ft | 444 kts | 148° |
| 2026-05-08 13:27 | 27.14560 | -82.55832 | 18799 ft | 440 kts | 148° |
| 2026-05-08 13:28 | 27.12049 | -82.53869 | 18103 ft | 438 kts | 149° |
| 2026-05-08 13:28 | 27.09554 | -82.51931 | 17474 ft | 434 kts | 148° |
| 2026-05-08 13:28 | 27.07084 | -82.50016 | 16852 ft | 430 kts | 148° |
| 2026-05-08 13:28 | 27.04626 | -82.48110 | 16231 ft | 426 kts | 148° |
| 2026-05-08 13:29 | 27.02202 | -82.46230 | 15623 ft | 421 kts | 148° |
| 2026-05-08 13:29 | 26.99814 | -82.44345 | 15016 ft | 417 kts | 147° |
| 2026-05-08 13:29 | 26.97451 | -82.42461 | 14413 ft | 413 kts | 147° |
| 2026-05-08 13:29 | 26.95155 | -82.40628 | 13825 ft | 409 kts | 146° |
| 2026-05-08 13:30 | 26.92845 | -82.38789 | 13233 ft | 405 kts | 146° |
| 2026-05-08 13:30 | 26.90555 | -82.36972 | 12644 ft | 400 kts | 146° |
| 2026-05-08 13:30 | 26.88293 | -82.35180 | 12067 ft | 396 kts | 146° |
| 2026-05-08 13:30 | 26.86060 | -82.33411 | 11494 ft | 391 kts | 146° |
| 2026-05-08 13:31 | 26.83872 | -82.31678 | 11295 ft | 377 kts | 146° |
| 2026-05-08 13:31 | 26.81767 | -82.30011 | 11120 ft | 364 kts | 146° |
| 2026-05-08 13:31 | 26.79731 | -82.28399 | 10957 ft | 352 kts | 146° |
| 2026-05-08 13:31 | 26.78420 | -82.27362 | 10809 ft | 346 kts | 146° |
| 2026-05-08 13:32 | 26.75836 | -82.25320 | 10527 ft | 334 kts | 146° |
| 2026-05-08 13:32 | 26.73956 | -82.23835 | 10321 ft | 326 kts | 146° |
| 2026-05-08 13:32 | 26.72125 | -82.22389 | 10119 ft | 318 kts | 146° |
| 2026-05-08 13:32 | 26.70339 | -82.20979 | 9965 ft | 309 kts | 146° |
| 2026-05-08 13:33 | 26.68620 | -82.19623 | 9962 ft | 296 kts | 146° |
| 2026-05-08 13:33 | 26.66943 | -82.18300 | 9602 ft | 296 kts | 146° |
| 2026-05-08 13:33 | 26.65291 | -82.16996 | 9399 ft | 292 kts | 145° |
| 2026-05-08 13:33 | 26.63649 | -82.15702 | 9201 ft | 286 kts | 146° |
| 2026-05-08 13:34 | 26.62033 | -82.14428 | 9024 ft | 283 kts | 145° |
| 2026-05-08 13:34 | 26.60423 | -82.13159 | 8833 ft | 283 kts | 145° |
| 2026-05-08 13:34 | 26.58819 | -82.11895 | 8652 ft | 282 kts | 145° |
| 2026-05-08 13:34 | 26.57218 | -82.10633 | 8487 ft | 281 kts | 146° |
| 2026-05-08 13:35 | 26.55624 | -82.09379 | 8297 ft | 280 kts | 146° |
| 2026-05-08 13:35 | 26.55085 | -82.08955 | 8230 ft | 280 kts | 146° |
| 2026-05-08 13:35 | 26.54878 | -82.08792 | 8205 ft | 281 kts | 146° |
| 2026-05-08 13:35 | 26.53387 | -82.07619 | 8050 ft | 280 kts | 146° |
| 2026-05-08 13:36 | 26.51799 | -82.06370 | 7871 ft | 280 kts | 146° |
| 2026-05-08 13:36 | 26.50205 | -82.05116 | 7681 ft | 280 kts | 146° |
| 2026-05-08 13:36 | 26.48611 | -82.03862 | 7510 ft | 280 kts | 146° |
| 2026-05-08 13:36 | 26.47018 | -82.02610 | 7347 ft | 279 kts | 146° |
| 2026-05-08 13:37 | 26.45433 | -82.01364 | 7159 ft | 279 kts | 146° |
| 2026-05-08 13:37 | 26.43890 | -82.00051 | 6960 ft | 280 kts | 134° |
| 2026-05-08 13:37 | 26.42727 | -81.98315 | 6809 ft | 279 kts | 124° |
| 2026-05-08 13:37 | 26.41644 | -81.96525 | 6644 ft | 278 kts | 125° |
| 2026-05-08 13:38 | 26.40562 | -81.94767 | 6461 ft | 278 kts | 125° |
| 2026-05-08 13:38 | 26.39500 | -81.92938 | 6261 ft | 278 kts | 114° |
| 2026-05-08 13:38 | 26.39086 | -81.90875 | 6099 ft | 277 kts | 89° |
| 2026-05-08 13:38 | 26.39301 | -81.88752 | 5950 ft | 274 kts | 81° |
| 2026-05-08 13:39 | 26.39598 | -81.86652 | 5770 ft | 274 kts | 81° |
| 2026-05-08 13:39 | 26.39888 | -81.84557 | 5605 ft | 269 kts | 81° |
| 2026-05-08 13:39 | 26.40156 | -81.82541 | 5438 ft | 257 kts | 81° |
| 2026-05-08 13:39 | 26.40413 | -81.80608 | 5254 ft | 247 kts | 79° |
| 2026-05-08 13:40 | 26.41050 | -81.78885 | 5091 ft | 239 kts | 54° |
| 2026-05-08 13:40 | 26.42025 | -81.77392 | 4961 ft | 238 kts | 52° |
| 2026-05-08 13:40 | 26.43001 | -81.75917 | 4834 ft | 234 kts | 52° |
| 2026-05-08 13:40 | 26.43956 | -81.74463 | 4698 ft | 230 kts | 52° |
| 2026-05-08 13:41 | 26.44894 | -81.73029 | 4538 ft | 228 kts | 52° |
| 2026-05-08 13:41 | 26.45827 | -81.71599 | 4387 ft | 226 kts | 53° |
| 2026-05-08 13:41 | 26.46739 | -81.70199 | 4248 ft | 225 kts | 53° |
| 2026-05-08 13:41 | 26.47672 | -81.68765 | 4112 ft | 227 kts | 52° |
| 2026-05-08 13:42 | 26.48598 | -81.67348 | 3920 ft | 232 kts | 53° |
| 2026-05-08 13:42 | 26.49555 | -81.65886 | 3671 ft | 233 kts | 53° |
| 2026-05-08 13:42 | 26.50506 | -81.64427 | 3412 ft | 231 kts | 53° |
| 2026-05-08 13:42 | 26.51432 | -81.63009 | 3164 ft | 222 kts | 52° |
| 2026-05-08 13:43 | 26.52332 | -81.61652 | 2954 ft | 212 kts | 50° |
| 2026-05-08 13:43 | 26.53349 | -81.60524 | 2762 ft | 203 kts | 33° |
| 2026-05-08 13:43 | 26.54624 | -81.59914 | 2625 ft | 199 kts | 10° |
| 2026-05-08 13:43 | 26.56002 | -81.59863 | 2493 ft | 199 kts | 351° |
| 2026-05-08 13:44 | 26.57287 | -81.60290 | 2320 ft | 187 kts | 333° |
| 2026-05-08 13:44 | 26.58328 | -81.61070 | 2184 ft | 174 kts | 316° |
| 2026-05-08 13:44 | 26.59066 | -81.62053 | 2106 ft | 162 kts | 302° |
| 2026-05-08 13:44 | 26.59542 | -81.63183 | 1956 ft | 160 kts | 287° |
| 2026-05-08 13:45 | 26.59733 | -81.64391 | 1822 ft | 157 kts | 271° |
| 2026-05-08 13:45 | 26.59701 | -81.65198 | 1739 ft | 157 kts | 262° |
| 2026-05-08 13:45 | 26.59424 | -81.66376 | 1630 ft | 157 kts | 247° |
| 2026-05-08 13:45 | 26.58888 | -81.67445 | 1455 ft | 158 kts | 235° |
| 2026-05-08 13:46 | 26.58246 | -81.68434 | 1263 ft | 156 kts | 233° |
| 2026-05-08 13:46 | 26.57605 | -81.69406 | 1060 ft | 155 kts | 233° |
| 2026-05-08 13:46 | 26.56968 | -81.70376 | 848 ft | 155 kts | 233° |
| 2026-05-08 13:46 | 26.56408 | -81.71228 | 694 ft | 154 kts | 234° |
| 2026-05-08 13:47 | 26.55778 | -81.72197 | 513 ft | 153 kts | 234° |
| 2026-05-08 13:47 | 26.55161 | -81.73143 | 329 ft | 152 kts | 233° |
| 2026-05-08 13:47 | 26.54537 | -81.74103 | 106 ft | 153 kts | 234° |
| 2026-05-08 13:47 | 26.53934 | -81.75026 | 40 ft | 133 kts | 234° |
| 2026-05-08 13:48 | 26.53502 | -81.75690 | 38 ft | 66 kts | 233° |
| 2026-05-08 13:48 | 26.53303 | -81.75994 | 38 ft | 39 kts | 234° |
| 2026-05-08 13:48 | 26.53299 | -81.76182 | 38 ft | 17 kts | 352° |
| 2026-05-08 13:48 | 26.53381 | -81.76092 | 36 ft | 17 kts | 57° |
| 2026-05-08 13:49 | 26.53449 | -81.75983 | 38 ft | 19 kts | 54° |
| 2026-05-08 13:49 | 26.53507 | -81.75839 | 36 ft | 23 kts | 89° |
| 2026-05-08 13:49 | 26.53479 | -81.75663 | 39 ft | 23 kts | 99° |
| 2026-05-08 13:49 | 26.53460 | -81.75495 | 38 ft | 22 kts | 127° |
| 2026-05-08 13:50 | 26.53340 | -81.75393 | 38 ft | 21 kts | 144° |
| 2026-05-08 13:50 | 26.53210 | -81.75325 | 37 ft | 21 kts | 181° |
| 2026-05-08 13:50 | 26.53071 | -81.75349 | 37 ft | 19 kts | 189° |
| 2026-05-08 13:50 | 26.53004 | -81.75410 | 37 ft | 11 kts | 253° |
| 2026-05-08 13:51 | 26.52996 | -81.75438 | 37 ft | 0 kts | 253° |